Time;durP1;ratioP1;P1;durP2;ratioP2;P2;SDS_P1;SDS_P2;PMS_P1;PMS_P2;Temp;Humidity;BMP_temperature;BMP_pressure;BME280_temperature;BME280_humidity;BME280_pressure;Samples;Min_cycle;Max_cycle;Signal;HPM_P1;HPM_P2
2023/06/22 00:01:31;;;;;;;9.82;7.47;;;;;;;;;;6215402;28;20300;-70
2023/06/22 00:04:36;;;;;;;11.23;7.60;;;;;;;;;;6213825;28;20296;-68
2023/06/22 00:07:40;;;;;;;39.92;8.95;;;;;;;;;;6215485;28;20246;-71
2023/06/22 00:10:45;;;;;;;25.40;8.93;;;;;;;;;;6215175;28;20302;-69
2023/06/22 00:13:52;;;;;;;13.75;7.38;;;;;;;;;;6234643;28;20312;-70
2023/06/22 00:16:58;;;;;;;17.83;7.80;;;;;;;;;;6206982;28;20269;-70
2023/06/22 00:20:07;;;;;;;12.82;7.88;;;;;;;;;;6214939;28;20297;-70
2023/06/22 00:23:15;;;;;;;10.35;8.40;;;;;;;;;;6215433;28;20250;-70
2023/06/22 00:26:21;;;;;;;11.55;7.85;;;;;;;;;;6214336;28;20525;-70
2023/06/22 00:29:27;;;;;;;15.68;8.15;;;;;;;;;;6213937;28;20597;-71
2023/06/22 00:32:33;;;;;;;13.88;7.43;;;;;;;;;;6213682;28;20281;-70
2023/06/22 00:35:41;;;;;;;10.57;7.93;;;;;;;;;;6214402;28;20296;-69
2023/06/22 00:38:46;;;;;;;11.55;8.55;;;;;;;;;;6214882;28;20274;-70
2023/06/22 00:41:50;;;;;;;10.40;8.60;;;;;;;;;;6214568;28;20292;-70
2023/06/22 00:44:59;;;;;;;9.13;7.82;;;;;;;;;;6215578;28;20297;-69
2023/06/22 00:48:04;;;;;;;15.48;7.43;;;;;;;;;;6213611;28;20277;-70
2023/06/22 00:51:09;;;;;;;10.18;8.20;;;;;;;;;;6213192;28;20292;-71
2023/06/22 00:54:15;;;;;;;8.80;7.80;;;;;;;;;;6214284;28;20293;-71
2023/06/22 00:57:20;;;;;;;22.10;8.00;;;;;;;;;;6214212;28;20237;-70
2023/06/22 01:00:26;;;;;;;12.85;8.38;;;;;;;;;;6214191;28;20301;-70
2023/06/22 01:03:32;;;;;;;8.95;8.18;;;;;;;;;;6214681;28;20302;-71
2023/06/22 01:06:42;;;;;;;14.43;8.57;;;;;;;;;;6212424;28;20293;-70
2023/06/22 01:09:50;;;;;;;16.20;9.30;;;;;;;;;;6212193;28;20305;-70
2023/06/22 01:12:59;;;;;;;12.68;9.20;;;;;;;;;;6233649;28;20240;-71
2023/06/22 01:16:09;;;;;;;10.15;9.25;;;;;;;;;;6211792;28;20301;-69
2023/06/22 01:19:28;;;;;;;10.32;8.95;;;;;;;;;;6213601;28;20296;-71
2023/06/22 01:22:34;;;;;;;9.98;8.98;;;;;;;;;;6212767;28;20279;-70
2023/06/22 01:25:46;;;;;;;10.23;9.23;;;;;;;;;;6211779;28;20302;-70
2023/06/22 01:28:54;;;;;;;11.90;9.48;;;;;;;;;;6214001;28;20249;-69
2023/06/22 01:31:59;;;;;;;10.07;9.10;;;;;;;;;;6212862;28;20274;-70
2023/06/22 01:35:07;;;;;;;10.23;8.93;;;;;;;;;;6195359;28;20297;-69
2023/06/22 01:38:12;;;;;;;10.23;9.32;;;;;;;;;;6211955;28;20277;-70
2023/06/22 01:41:17;;;;;;;11.35;9.35;;;;;;;;;;6213158;28;20313;-71
2023/06/22 01:44:26;;;;;;;10.30;9.40;;;;;;;;;;6212890;28;20292;-70
2023/06/22 01:47:31;;;;;;;10.38;9.38;;;;;;;;;;6213083;28;20242;-70
2023/06/22 01:50:36;;;;;;;11.90;10.00;;;;;;;;;;6211152;28;20296;-70
2023/06/22 01:53:41;;;;;;;11.20;10.10;;;;;;;;;;6211604;28;20297;-70
2023/06/22 01:56:46;;;;;;;11.00;10.05;;;;;;;;;;6211415;28;20294;-70
2023/06/22 01:59:58;;;;;;;22.52;10.80;;;;;;;;;;6211523;28;20296;-69
2023/06/22 02:03:07;;;;;;;11.07;9.90;;;;;;;;;;6210524;28;20450;-71
2023/06/22 02:06:17;;;;;;;12.40;11.15;;;;;;;;;;6210508;28;20300;-69
2023/06/22 02:09:24;;;;;;;12.93;10.55;;;;;;;;;;6210685;28;20594;-69
2023/06/22 02:12:30;;;;;;;11.20;10.27;;;;;;;;;;6211099;28;20277;-69
2023/06/22 02:15:36;;;;;;;14.38;10.82;;;;;;;;;;6211695;28;20304;-71
2023/06/22 02:18:41;;;;;;;12.05;10.85;;;;;;;;;;6212327;28;20241;-69
2023/06/22 02:21:45;;;;;;;12.80;10.65;;;;;;;;;;6213345;28;20289;-70
2023/06/22 02:24:50;;;;;;;11.85;10.77;;;;;;;;;;6210329;28;20300;-70
2023/06/22 02:27:56;;;;;;;12.02;10.85;;;;;;;;;;6211060;28;20565;-70
2023/06/22 02:31:02;;;;;;;11.93;9.90;;;;;;;;;;6210424;28;20293;-72
2023/06/22 02:34:07;;;;;;;11.60;10.38;;;;;;;;;;6211758;28;20318;-70
2023/06/22 02:37:12;;;;;;;11.20;10.13;;;;;;;;;;6212264;28;20242;-69
2023/06/22 02:40:17;;;;;;;13.68;10.93;;;;;;;;;;6210826;28;20296;-70
2023/06/22 02:43:21;;;;;;;11.35;10.07;;;;;;;;;;6210403;28;20395;-69
2023/06/22 02:46:27;;;;;;;10.52;9.45;;;;;;;;;;6210313;28;20298;-71
2023/06/22 02:49:32;;;;;;;16.13;9.55;;;;;;;;;;6211886;28;20301;-72
2023/06/22 02:52:38;;;;;;;14.52;9.68;;;;;;;;;;6211049;28;20268;-70
2023/06/22 02:55:42;;;;;;;10.50;9.52;;;;;;;;;;6209886;28;20312;-70
2023/06/22 02:58:47;;;;;;;10.63;9.73;;;;;;;;;;6210448;28;20521;-70
2023/06/22 03:01:53;;;;;;;15.23;9.80;;;;;;;;;;6169819;28;20429;-70
2023/06/22 03:05:03;;;;;;;10.35;9.43;;;;;;;;;;6168060;28;20504;-70
2023/06/22 03:08:08;;;;;;;10.52;9.73;;;;;;;;;;6202031;28;20265;-70
2023/06/22 03:11:12;;;;;;;10.10;9.25;;;;;;;;;;6185714;28;20298;-70
2023/06/22 03:14:18;;;;;;;10.02;9.13;;;;;;;;;;6166640;28;20430;-70
2023/06/22 03:17:24;;;;;;;11.35;9.20;;;;;;;;;;6145944;29;20274;-70
2023/06/22 03:20:33;;;;;;;10.02;9.23;;;;;;;;;;6190739;28;20302;-70
2023/06/22 03:23:38;;;;;;;10.75;9.65;;;;;;;;;;6186131;28;20278;-69
2023/06/22 03:26:46;;;;;;;10.73;9.82;;;;;;;;;;6186792;28;20302;-69
2023/06/22 03:29:51;;;;;;;10.60;9.65;;;;;;;;;;6186828;28;20293;-70
2023/06/22 03:32:57;;;;;;;11.60;9.20;;;;;;;;;;6186732;28;20531;-69
2023/06/22 03:36:03;;;;;;;10.75;9.95;;;;;;;;;;6185745;28;20310;-71
2023/06/22 03:39:08;;;;;;;11.18;10.18;;;;;;;;;;6186457;28;20246;-70
2023/06/22 03:42:13;;;;;;;14.00;9.80;;;;;;;;;;6185925;28;20429;-69
2023/06/22 03:45:18;;;;;;;10.32;9.18;;;;;;;;;;6186824;28;20314;-70
2023/06/22 03:48:25;;;;;;;10.35;9.45;;;;;;;;;;6187222;28;20340;-70
2023/06/22 03:51:30;;;;;;;10.30;9.45;;;;;;;;;;6186453;28;20302;-69
2023/06/22 03:54:34;;;;;;;10.75;9.70;;;;;;;;;;6186736;28;20294;-71
2023/06/22 03:57:39;;;;;;;15.20;10.40;;;;;;;;;;6187329;28;20235;-70
2023/06/22 04:00:44;;;;;;;10.25;9.38;;;;;;;;;;6186737;28;20301;-70
2023/06/22 04:03:50;;;;;;;10.15;9.40;;;;;;;;;;6197722;28;20593;-70
2023/06/22 04:06:54;;;;;;;12.32;9.73;;;;;;;;;;6210004;28;20318;-70
2023/06/22 04:09:59;;;;;;;10.93;9.95;;;;;;;;;;6210784;28;20304;-69
2023/06/22 04:13:04;;;;;;;10.13;9.32;;;;;;;;;;6211414;28;20249;-70
2023/06/22 04:16:08;;;;;;;11.93;9.85;;;;;;;;;;6210505;28;20300;-71
2023/06/22 04:19:16;;;;;;;10.93;10.02;;;;;;;;;;6210829;28;20241;-69
2023/06/22 04:22:21;;;;;;;10.95;10.05;;;;;;;;;;6210815;28;20238;-69
2023/06/22 04:25:25;;;;;;;9.90;9.18;;;;;;;;;;6210702;28;20325;-71
2023/06/22 04:28:34;;;;;;;9.80;8.90;;;;;;;;;;6214483;28;20494;-69
2023/06/22 04:31:39;;;;;;;11.25;9.93;;;;;;;;;;6214801;28;20350;-71
2023/06/22 04:34:45;;;;;;;9.48;8.77;;;;;;;;;;6214588;28;20464;-69
2023/06/22 04:37:54;;;;;;;9.15;8.45;;;;;;;;;;6215227;28;20261;-70
2023/06/22 04:41:01;;;;;;;9.02;8.40;;;;;;;;;;6214977;28;20320;-71
2023/06/22 04:44:05;;;;;;;8.60;8.00;;;;;;;;;;6214222;28;20242;-70
2023/06/22 04:47:10;;;;;;;8.98;7.80;;;;;;;;;;6214635;28;20436;-70
2023/06/22 04:50:17;;;;;;;8.35;7.60;;;;;;;;;;6212531;28;20301;-68
2023/06/22 04:53:22;;;;;;;8.77;8.07;;;;;;;;;;6229363;28;20569;-69
2023/06/22 04:56:27;;;;;;;9.25;7.82;;;;;;;;;;6232103;28;20300;-70
2023/06/22 04:59:33;;;;;;;7.88;7.30;;;;;;;;;;6238420;28;20300;-69
2023/06/22 05:02:38;;;;;;;9.93;7.18;;;;;;;;;;6238261;28;20257;-70
2023/06/22 05:05:44;;;;;;;14.07;7.30;;;;;;;;;;6237993;28;20304;-69
2023/06/22 05:08:49;;;;;;;14.48;8.23;;;;;;;;;;6239029;28;20245;-69
2023/06/22 05:11:54;;;;;;;11.18;7.32;;;;;;;;;;6238442;28;20611;-69
2023/06/22 05:14:58;;;;;;;8.15;7.53;;;;;;;;;;6225832;28;20473;-69
2023/06/22 05:18:05;;;;;;;8.05;7.38;;;;;;;;;;6238281;28;20448;-69
2023/06/22 05:21:11;;;;;;;7.55;7.03;;;;;;;;;;6238020;28;20304;-70
2023/06/22 05:24:16;;;;;;;7.97;7.25;;;;;;;;;;6237698;28;20249;-68
2023/06/22 05:27:20;;;;;;;9.75;7.40;;;;;;;;;;6238412;28;20245;-67
2023/06/22 05:30:25;;;;;;;7.65;6.90;;;;;;;;;;6237810;28;20313;-67
2023/06/22 05:33:29;;;;;;;7.70;7.05;;;;;;;;;;6238849;28;20269;-69
2023/06/22 05:36:35;;;;;;;8.80;7.68;;;;;;;;;;6238164;28;20304;-70
2023/06/22 05:39:40;;;;;;;7.60;7.00;;;;;;;;;;6236611;28;20291;-68
2023/06/22 05:42:44;;;;;;;8.52;7.63;;;;;;;;;;6220156;28;20328;-68
2023/06/22 05:45:49;;;;;;;8.05;7.35;;;;;;;;;;6237548;28;20476;-70
2023/06/22 05:48:54;;;;;;;8.90;7.57;;;;;;;;;;6238193;28;20241;-70
2023/06/22 05:52:00;;;;;;;7.22;6.82;;;;;;;;;;6229581;28;20305;-69
2023/06/22 05:55:05;;;;;;;37.83;14.88;;;;;;;;;;6237159;28;20292;-70
2023/06/22 05:58:10;;;;;;;13.52;8.20;;;;;;;;;;6235517;28;20292;-70
2023/06/22 06:01:15;;;;;;;7.93;7.28;;;;;;;;;;6237943;28;20308;-70
2023/06/22 06:04:21;;;;;;;7.70;7.07;;;;;;;;;;6237009;28;20300;-69
2023/06/22 06:07:27;;;;;;;6.85;6.28;;;;;;;;;;6237305;28;20245;-70
2023/06/22 06:10:32;;;;;;;7.60;6.72;;;;;;;;;;6236482;28;20304;-70
2023/06/22 06:13:37;;;;;;;7.72;6.72;;;;;;;;;;6234395;28;20276;-71
2023/06/22 06:16:41;;;;;;;7.15;6.65;;;;;;;;;;6234611;28;20296;-70
2023/06/22 06:19:46;;;;;;;8.80;7.07;;;;;;;;;;6236515;28;20312;-70
2023/06/22 06:22:52;;;;;;;13.07;6.95;;;;;;;;;;6236671;28;20277;-70
2023/06/22 06:25:57;;;;;;;7.45;6.80;;;;;;;;;;6236491;28;20288;-69
2023/06/22 06:29:03;;;;;;;11.65;6.82;;;;;;;;;;6236416;28;20240;-70
2023/06/22 06:32:09;;;;;;;7.32;6.57;;;;;;;;;;6236388;28;20440;-69
2023/06/22 06:35:15;;;;;;;8.40;6.18;;;;;;;;;;6236079;28;20300;-70
2023/06/22 06:38:21;;;;;;;10.68;6.07;;;;;;;;;;6236291;28;20276;-70
2023/06/22 06:41:26;;;;;;;13.50;6.40;;;;;;;;;;6236165;28;20316;-69
2023/06/22 06:44:30;;;;;;;8.02;5.93;;;;;;;;;;6236108;28;20301;-69
2023/06/22 06:47:35;;;;;;;6.25;5.80;;;;;;;;;;6236534;28;20248;-71
2023/06/22 06:50:40;;;;;;;5.53;5.18;;;;;;;;;;6235813;28;20312;-70
2023/06/22 06:53:46;;;;;;;9.75;5.15;;;;;;;;;;6235969;28;20526;-69
2023/06/22 06:56:50;;;;;;;7.22;5.18;;;;;;;;;;6235719;28;20304;-71
2023/06/22 06:59:56;;;;;;;6.28;5.68;;;;;;;;;;6235666;28;20292;-70
2023/06/22 07:03:00;;;;;;;8.00;5.53;;;;;;;;;;6235841;28;20487;-70
2023/06/22 07:06:05;;;;;;;5.60;5.10;;;;;;;;;;6235817;28;20387;-69
2023/06/22 07:09:11;;;;;;;5.07;4.72;;;;;;;;;;6235949;28;20244;-70
2023/06/22 07:12:15;;;;;;;5.50;5.05;;;;;;;;;;6233827;28;20253;-70
2023/06/22 07:15:20;;;;;;;5.15;4.88;;;;;;;;;;6231642;28;20296;-69
2023/06/22 07:18:26;;;;;;;4.85;4.55;;;;;;;;;;6235771;28;20268;-70
2023/06/22 07:21:31;;;;;;;8.07;4.82;;;;;;;;;;6235302;28;20297;-68
2023/06/22 07:24:37;;;;;;;8.57;4.95;;;;;;;;;;6235416;28;20368;-69
2023/06/22 07:27:45;;;;;;;5.53;5.05;;;;;;;;;;6235556;28;20253;-71
2023/06/22 07:30:51;;;;;;;5.10;4.80;;;;;;;;;;6235312;28;20296;-69
2023/06/22 07:33:56;;;;;;;4.90;4.60;;;;;;;;;;6235539;28;20469;-70
2023/06/22 07:37:00;;;;;;;4.80;4.50;;;;;;;;;;6234975;28;20268;-70
2023/06/22 07:40:09;;;;;;;5.30;4.80;;;;;;;;;;6234882;28;20296;-70
2023/06/22 07:43:13;;;;;;;7.82;4.80;;;;;;;;;;6234618;28;20268;-69
2023/06/22 07:46:18;;;;;;;5.32;4.82;;;;;;;;;;6235678;28;20580;-70
2023/06/22 07:49:22;;;;;;;9.85;4.97;;;;;;;;;;6234848;28;20585;-70
2023/06/22 07:52:27;;;;;;;19.05;5.55;;;;;;;;;;6235038;28;20553;-70
2023/06/22 07:55:33;;;;;;;4.63;4.45;;;;;;;;;;6249249;28;20296;-71
2023/06/22 07:58:38;;;;;;;5.03;4.45;;;;;;;;;;6235059;28;20273;-71
2023/06/22 08:01:43;;;;;;;4.65;4.28;;;;;;;;;;6236063;28;20297;-70
2023/06/22 08:04:47;;;;;;;5.97;4.57;;;;;;;;;;6238860;28;20292;-70
2023/06/22 08:07:53;;;;;;;4.88;4.28;;;;;;;;;;6239647;28;20333;-69
2023/06/22 08:10:59;;;;;;;4.65;4.32;;;;;;;;;;6236704;28;20313;-69
2023/06/22 08:14:03;;;;;;;6.93;4.07;;;;;;;;;;6235418;28;20421;-69
2023/06/22 08:17:08;;;;;;;5.07;4.63;;;;;;;;;;6239723;28;20261;-71
2023/06/22 08:20:13;;;;;;;20.67;5.53;;;;;;;;;;6238976;28;20288;-71
2023/06/22 08:23:18;;;;;;;4.72;4.43;;;;;;;;;;6239669;28;20237;-70
2023/06/22 08:26:24;;;;;;;9.80;4.85;;;;;;;;;;6238918;28;20368;-69
2023/06/22 08:29:28;;;;;;;4.68;4.28;;;;;;;;;;6239238;28;20421;-70
2023/06/22 08:32:33;;;;;;;4.78;4.35;;;;;;;;;;6239697;28;20240;-72
2023/06/22 08:35:38;;;;;;;5.25;4.53;;;;;;;;;;6238756;28;20299;-70
2023/06/22 08:38:43;;;;;;;4.45;4.13;;;;;;;;;;6239373;28;20260;-70
2023/06/22 08:41:49;;;;;;;4.55;4.35;;;;;;;;;;6239919;28;20296;-70
2023/06/22 08:44:53;;;;;;;5.57;4.13;;;;;;;;;;6238862;28;20305;-69
2023/06/22 08:47:58;;;;;;;4.53;4.30;;;;;;;;;;6239708;28;20241;-69
2023/06/22 08:51:03;;;;;;;5.63;4.05;;;;;;;;;;6238882;28;20296;-69
2023/06/22 08:54:08;;;;;;;4.72;4.30;;;;;;;;;;6238130;28;20323;-70
2023/06/22 08:57:14;;;;;;;9.93;4.63;;;;;;;;;;6239217;28;20245;-69
2023/06/22 09:00:20;;;;;;;5.28;4.22;;;;;;;;;;6238252;28;20444;-69
2023/06/22 09:03:26;;;;;;;7.90;4.57;;;;;;;;;;6238781;28;20562;-69
2023/06/22 09:06:32;;;;;;;6.65;4.85;;;;;;;;;;6238088;28;20540;-70
2023/06/22 09:09:36;;;;;;;5.97;4.22;;;;;;;;;;6238688;28;20301;-70
2023/06/22 09:12:42;;;;;;;7.95;4.60;;;;;;;;;;6238497;28;20241;-69
2023/06/22 09:15:47;;;;;;;4.53;4.20;;;;;;;;;;6234376;28;20307;-70
2023/06/22 09:18:52;;;;;;;4.35;3.90;;;;;;;;;;6238514;28;20269;-70
2023/06/22 09:21:57;;;;;;;5.55;4.40;;;;;;;;;;6237815;28;20474;-71
2023/06/22 09:25:02;;;;;;;18.52;4.85;;;;;;;;;;6238008;28;20288;-69
2023/06/22 09:28:11;;;;;;;4.85;4.18;;;;;;;;;;6253132;28;20275;-69
2023/06/22 09:31:16;;;;;;;6.78;4.57;;;;;;;;;;6237482;28;20296;-70
2023/06/22 09:34:21;;;;;;;6.25;4.57;;;;;;;;;;6252281;28;20292;-70
2023/06/22 09:37:26;;;;;;;5.45;4.15;;;;;;;;;;6238062;28;20245;-69
2023/06/22 09:40:32;;;;;;;4.72;4.43;;;;;;;;;;6237248;28;20296;-72
2023/06/22 09:43:38;;;;;;;5.88;3.70;;;;;;;;;;6238058;28;20513;-71
2023/06/22 09:46:43;;;;;;;7.70;4.18;;;;;;;;;;6237550;28;20596;-70
2023/06/22 09:49:47;;;;;;;7.32;4.35;;;;;;;;;;6236827;28;20284;-70
2023/06/22 09:52:54;;;;;;;4.57;4.22;;;;;;;;;;6237363;28;20241;-70
2023/06/22 09:55:59;;;;;;;7.15;4.25;;;;;;;;;;6237159;28;20301;-69
2023/06/22 09:59:06;;;;;;;4.25;3.95;;;;;;;;;;6237261;28;20265;-69
2023/06/22 10:02:22;;;;;;;9.15;4.22;;;;;;;;;;6237102;28;20252;-71
2023/06/22 10:05:27;;;;;;;3.80;3.58;;;;;;;;;;6236164;28;20300;-69
2023/06/22 10:08:32;;;;;;;6.45;3.92;;;;;;;;;;6236616;28;20242;-70
2023/06/22 10:11:36;;;;;;;3.72;3.42;;;;;;;;;;6215726;28;20296;-70
2023/06/22 10:14:42;;;;;;;18.75;3.65;;;;;;;;;;6233178;28;20305;-70
2023/06/22 10:17:48;;;;;;;10.52;3.28;;;;;;;;;;6237573;28;20237;-70
2023/06/22 10:20:53;;;;;;;5.97;3.30;;;;;;;;;;6236810;28;20320;-70
2023/06/22 10:23:58;;;;;;;3.85;3.63;;;;;;;;;;6240076;28;20249;-70
2023/06/22 10:27:02;;;;;;;3.92;3.55;;;;;;;;;;6239003;28;20268;-70
2023/06/22 10:30:14;;;;;;;3.50;3.30;;;;;;;;;;6237631;28;20301;-70
2023/06/22 10:33:25;;;;;;;5.30;3.22;;;;;;;;;;6239343;28;20236;-70
2023/06/22 10:36:32;;;;;;;5.50;3.72;;;;;;;;;;6238552;28;20292;-69
2023/06/22 10:39:37;;;;;;;4.68;3.33;;;;;;;;;;6236374;28;20284;-69
2023/06/22 10:42:42;;;;;;;3.10;3.00;;;;;;;;;;6235938;28;20292;-70
2023/06/22 10:45:49;;;;;;;6.07;3.10;;;;;;;;;;6237567;28;20288;-71
2023/06/22 10:48:55;;;;;;;5.13;3.50;;;;;;;;;;6237863;28;20233;-72
2023/06/22 10:51:59;;;;;;;5.10;2.75;;;;;;;;;;6234383;28;20296;-71
2023/06/22 10:55:07;;;;;;;8.43;3.60;;;;;;;;;;6236199;28;20304;-72
2023/06/22 10:58:12;;;;;;;4.78;3.10;;;;;;;;;;6235968;28;20241;-69
2023/06/22 11:01:18;;;;;;;5.93;3.00;;;;;;;;;;6235236;28;20300;-70
2023/06/22 11:04:38;;;;;;;3.33;3.13;;;;;;;;;;6235054;28;20316;-73
2023/06/22 11:07:44;;;;;;;8.57;2.60;;;;;;;;;;6235683;28;20233;-74
2023/06/22 11:10:50;;;;;;;4.25;3.08;;;;;;;;;;6232100;28;20292;-68
2023/06/22 11:13:54;;;;;;;3.40;3.10;;;;;;;;;;6235927;28;20241;-72
2023/06/22 11:17:00;;;;;;;5.75;3.22;;;;;;;;;;6235197;28;20328;-74
2023/06/22 11:20:10;;;;;;;3.25;2.85;;;;;;;;;;6235842;28;20300;-72
2023/06/22 11:23:15;;;;;;;5.95;2.63;;;;;;;;;;6235615;28;20253;-69
2023/06/22 11:26:21;;;;;;;12.38;3.47;;;;;;;;;;6234866;28;20490;-68
2023/06/22 11:29:25;;;;;;;5.00;2.95;;;;;;;;;;6234928;28;20296;-71
2023/06/22 11:32:42;;;;;;;3.30;2.80;;;;;;;;;;6217834;28;20268;-71
2023/06/22 11:35:47;;;;;;;12.93;2.90;;;;;;;;;;6234683;28;20308;-69
2023/06/22 11:38:52;;;;;;;10.10;2.80;;;;;;;;;;6240298;28;20249;-69
2023/06/22 11:41:56;;;;;;;8.05;3.70;;;;;;;;;;6239798;28;20571;-70
2023/06/22 11:45:01;;;;;;;3.47;2.40;;;;;;;;;;6239970;28;20293;-70
2023/06/22 11:48:07;;;;;;;13.88;2.97;;;;;;;;;;6240238;28;20243;-70
2023/06/22 11:51:12;;;;;;;5.28;2.53;;;;;;;;;;6240006;28;20487;-72
2023/06/22 11:54:16;;;;;;;3.80;2.83;;;;;;;;;;6239688;28;20424;-71
2023/06/22 11:57:21;;;;;;;4.25;2.45;;;;;;;;;;6240132;28;20262;-70
2023/06/22 12:00:26;;;;;;;4.95;2.60;;;;;;;;;;6241087;28;20296;-70
2023/06/22 12:03:35;;;;;;;6.78;3.00;;;;;;;;;;6243043;28;20291;-72
2023/06/22 12:06:42;;;;;;;6.03;2.75;;;;;;;;;;6237724;28;20297;-70
2023/06/22 12:09:47;;;;;;;4.85;2.42;;;;;;;;;;6237961;28;20299;-70
2023/06/22 12:12:51;;;;;;;4.13;2.60;;;;;;;;;;6238666;28;20253;-70
2023/06/22 12:15:56;;;;;;;4.07;2.80;;;;;;;;;;6237891;28;20328;-70
2023/06/22 12:19:02;;;;;;;11.02;2.70;;;;;;;;;;6237903;28;20248;-71
2023/06/22 12:22:07;;;;;;;3.00;2.90;;;;;;;;;;6238273;28;20264;-69
2023/06/22 12:25:12;;;;;;;3.42;2.60;;;;;;;;;;6238003;28;20322;-70
2023/06/22 12:28:16;;;;;;;3.70;2.50;;;;;;;;;;6238146;28;20247;-72
2023/06/22 12:31:21;;;;;;;3.00;2.80;;;;;;;;;;6237670;28;20381;-70
2023/06/22 12:34:27;;;;;;;5.22;2.95;;;;;;;;;;6237426;28;20288;-70
2023/06/22 12:37:33;;;;;;;4.20;2.92;;;;;;;;;;6237768;28;20241;-70
2023/06/22 12:40:38;;;;;;;25.25;3.45;;;;;;;;;;6237449;28;20308;-70
2023/06/22 12:43:42;;;;;;;25.15;3.85;;;;;;;;;;6238030;28;20517;-71
2023/06/22 12:46:47;;;;;;;4.68;2.88;;;;;;;;;;6237194;28;20292;-72
2023/06/22 12:49:53;;;;;;;9.45;2.53;;;;;;;;;;6237185;28;20304;-71
2023/06/22 12:52:59;;;;;;;2.88;2.63;;;;;;;;;;6238016;28;20513;-71
2023/06/22 12:56:04;;;;;;;5.47;2.90;;;;;;;;;;6220141;28;20284;-70
2023/06/22 12:59:09;;;;;;;4.07;2.88;;;;;;;;;;6237455;28;20245;-71
2023/06/22 13:02:14;;;;;;;9.55;4.18;;;;;;;;;;6237703;28;20284;-71
2023/06/22 13:05:21;;;;;;;7.22;3.20;;;;;;;;;;6193781;28;1292902;-71
2023/06/22 13:08:25;;;;;;;6.75;3.10;;;;;;;;;;6238783;28;20245;-70
2023/06/22 13:11:52;;;;;;;4.68;3.25;;;;;;;;;;6238207;28;20296;-69
2023/06/22 13:14:56;;;;;;;8.98;2.85;;;;;;;;;;6238096;28;20473;-71
2023/06/22 13:18:01;;;;;;;10.45;2.80;;;;;;;;;;6238356;28;20269;-70
2023/06/22 13:21:07;;;;;;;5.88;3.03;;;;;;;;;;6237828;28;20301;-71
2023/06/22 13:24:12;;;;;;;3.42;2.78;;;;;;;;;;6237391;28;20241;-70
2023/06/22 13:27:16;;;;;;;10.20;3.20;;;;;;;;;;6238159;28;20285;-70
2023/06/22 13:30:21;;;;;;;6.25;3.33;;;;;;;;;;6237512;28;20477;-70
2023/06/22 13:33:25;;;;;;;4.65;3.00;;;;;;;;;;6237890;28;20249;-70
2023/06/22 13:36:31;;;;;;;3.08;2.97;;;;;;;;;;6238215;28;20296;-69
2023/06/22 13:39:36;;;;;;;2.97;2.90;;;;;;;;;;6243187;28;20301;-73
2023/06/22 13:42:41;;;;;;;3.00;2.90;;;;;;;;;;6237580;28;20261;-70
2023/06/22 13:45:45;;;;;;;2.90;2.70;;;;;;;;;;6237177;28;20372;-69
2023/06/22 13:48:50;;;;;;;3.28;3.08;;;;;;;;;;6237592;28;20241;-70
2023/06/22 13:51:56;;;;;;;6.63;2.63;;;;;;;;;;6236852;28;20512;-69
2023/06/22 13:55:00;;;;;;;5.68;2.67;;;;;;;;;;6237184;28;20375;-70
2023/06/22 13:58:05;;;;;;;4.93;2.92;;;;;;;;;;6237872;28;20248;-69
2023/06/22 14:01:09;;;;;;;4.97;2.88;;;;;;;;;;6236069;28;20305;-70
2023/06/22 14:04:34;;;;;;;4.65;2.97;;;;;;;;;;6237294;28;20305;-70
2023/06/22 14:07:40;;;;;;;4.78;2.78;;;;;;;;;;6236764;28;20236;-70
2023/06/22 14:10:45;;;;;;;14.68;3.83;;;;;;;;;;6236181;28;20372;-70
2023/06/22 14:13:50;;;;;;;8.70;3.63;;;;;;;;;;6237251;28;20253;-70
2023/06/22 14:16:54;;;;;;;3.85;3.10;;;;;;;;;;6236884;28;20568;-70
2023/06/22 14:19:59;;;;;;;3.15;3.00;;;;;;;;;;6235137;28;20292;-69
2023/06/22 14:23:05;;;;;;;3.40;3.00;;;;;;;;;;6236586;28;20269;-69
2023/06/22 14:26:09;;;;;;;3.15;2.95;;;;;;;;;;6236506;28;20404;-69
2023/06/22 14:29:14;;;;;;;9.77;3.22;;;;;;;;;;6236101;28;20244;-69
2023/06/22 14:32:19;;;;;;;3.25;3.00;;;;;;;;;;6236740;28;20245;-70
2023/06/22 14:35:24;;;;;;;4.82;3.05;;;;;;;;;;6236135;28;20299;-69
2023/06/22 14:38:30;;;;;;;3.20;3.10;;;;;;;;;;6236162;28;20237;-70
2023/06/22 14:41:34;;;;;;;5.55;2.85;;;;;;;;;;6236042;28;20296;-70
2023/06/22 14:44:39;;;;;;;6.47;3.20;;;;;;;;;;6217361;28;20267;-70
2023/06/22 14:47:43;;;;;;;4.28;3.15;;;;;;;;;;6233877;28;20300;-69
2023/06/22 14:50:48;;;;;;;4.40;2.60;;;;;;;;;;6236208;28;20246;-71
2023/06/22 14:53:54;;;;;;;4.20;2.78;;;;;;;;;;6235883;28;20295;-69
2023/06/22 14:56:58;;;;;;;16.88;3.10;;;;;;;;;;6235751;28;20313;-69
2023/06/22 15:00:03;;;;;;;7.40;3.40;;;;;;;;;;6236289;28;20250;-71
2023/06/22 15:03:11;;;;;;;3.17;2.97;;;;;;;;;;6233712;28;20300;-70
2023/06/22 15:06:16;;;;;;;9.23;3.00;;;;;;;;;;6235815;28;20442;-69
2023/06/22 15:09:22;;;;;;;3.75;3.17;;;;;;;;;;6235968;28;20296;-69
2023/06/22 15:12:26;;;;;;;4.78;3.00;;;;;;;;;;6233163;28;20581;-70
2023/06/22 15:15:31;;;;;;;3.13;2.75;;;;;;;;;;6236485;28;20310;-69
2023/06/22 15:18:36;;;;;;;6.18;2.83;;;;;;;;;;6235979;28;20295;-70
2023/06/22 15:21:41;;;;;;;9.52;3.00;;;;;;;;;;6235590;28;20265;-70
2023/06/22 15:24:47;;;;;;;3.17;2.80;;;;;;;;;;6236254;28;20241;-69
2023/06/22 15:27:52;;;;;;;9.25;3.20;;;;;;;;;;6235175;28;20288;-69
2023/06/22 15:30:57;;;;;;;6.40;3.10;;;;;;;;;;6235523;28;20245;-70
2023/06/22 15:34:03;;;;;;;2.97;2.70;;;;;;;;;;6234798;28;20308;-69
2023/06/22 15:37:08;;;;;;;3.85;3.25;;;;;;;;;;6235259;28;20292;-70
2023/06/22 15:40:14;;;;;;;2.97;2.75;;;;;;;;;;6235747;28;20256;-71
2023/06/22 15:43:20;;;;;;;3.00;2.80;;;;;;;;;;6234930;28;20437;-69
2023/06/22 15:46:24;;;;;;;3.40;2.50;;;;;;;;;;6235226;28;20418;-69
2023/06/22 15:49:29;;;;;;;4.18;2.85;;;;;;;;;;6235414;28;20301;-72
2023/06/22 15:52:33;;;;;;;3.83;2.80;;;;;;;;;;6229628;28;20296;-70
2023/06/22 15:55:39;;;;;;;425.35;21.83;;;;;;;;;;6235557;28;20253;-71
2023/06/22 15:58:44;;;;;;;3.08;2.65;;;;;;;;;;6221188;28;20296;-71
2023/06/22 16:01:49;;;;;;;5.13;2.60;;;;;;;;;;6210064;28;20265;-70
2023/06/22 16:04:56;;;;;;;3.60;2.35;;;;;;;;;;6211223;28;20463;-69
2023/06/22 16:08:00;;;;;;;5.38;2.80;;;;;;;;;;6210352;28;20484;-71
2023/06/22 16:11:07;;;;;;;11.50;3.00;;;;;;;;;;6214310;28;20229;-71
2023/06/22 16:14:11;;;;;;;5.63;2.83;;;;;;;;;;6234574;28;20485;-72
2023/06/22 16:17:16;;;;;;;3.00;2.80;;;;;;;;;;6233056;28;20304;-71
2023/06/22 16:20:21;;;;;;;4.63;3.17;;;;;;;;;;6235265;28;20420;-72
2023/06/22 16:23:26;;;;;;;8.60;3.30;;;;;;;;;;6236528;28;20331;-71
2023/06/22 16:26:40;;;;;;;6.85;2.72;;;;;;;;;;6239279;28;20305;-70
2023/06/22 16:29:44;;;;;;;6.20;3.10;;;;;;;;;;6238189;28;20260;-71
2023/06/22 16:32:53;;;;;;;3.63;2.95;;;;;;;;;;6238776;28;20572;-70
2023/06/22 16:35:58;;;;;;;15.82;3.20;;;;;;;;;;6239058;28;20241;-70
2023/06/22 16:39:04;;;;;;;8.93;3.00;;;;;;;;;;6238852;28;20608;-70
2023/06/22 16:42:11;;;;;;;3.20;2.90;;;;;;;;;;6236606;28;20588;-72
2023/06/22 16:45:16;;;;;;;2.70;2.50;;;;;;;;;;6240113;28;20242;-70
2023/06/22 16:48:20;;;;;;;17.10;3.10;;;;;;;;;;6239085;28;20296;-73
2023/06/22 16:51:25;;;;;;;10.50;3.15;;;;;;;;;;6240563;28;20245;-71
2023/06/22 16:54:30;;;;;;;3.47;3.20;;;;;;;;;;6239273;28;20300;-70
2023/06/22 16:57:37;;;;;;;3.50;2.88;;;;;;;;;;6238695;28;20296;-71
2023/06/22 17:00:42;;;;;;;6.47;2.75;;;;;;;;;;6222200;28;20272;-70
2023/06/22 17:03:52;;;;;;;3.60;2.65;;;;;;;;;;6238531;28;20324;-70
2023/06/22 17:07:00;;;;;;;2.95;2.80;;;;;;;;;;6237228;28;20584;-70
2023/06/22 17:10:05;;;;;;;6.10;3.03;;;;;;;;;;6239167;28;20257;-70
2023/06/22 17:13:11;;;;;;;4.15;3.17;;;;;;;;;;6238670;28;20292;-70
2023/06/22 17:16:16;;;;;;;5.25;2.88;;;;;;;;;;6237494;28;20556;-70
2023/06/22 17:19:21;;;;;;;2.58;2.42;;;;;;;;;;6237114;28;20299;-71
2023/06/22 17:22:27;;;;;;;2.83;2.63;;;;;;;;;;6238906;28;20369;-69
2023/06/22 17:25:34;;;;;;;3.75;2.70;;;;;;;;;;6238132;28;20304;-71
2023/06/22 17:28:50;;;;;;;3.85;3.60;;;;;;;;;;6239974;28;20296;-70
2023/06/22 17:31:57;;;;;;;3.35;3.10;;;;;;;;;;6241769;28;20249;-71
2023/06/22 17:35:02;;;;;;;4.75;2.65;;;;;;;;;;6240032;28;20245;-70
2023/06/22 17:38:06;;;;;;;7.88;2.80;;;;;;;;;;6238050;28;20299;-71
2023/06/22 17:41:11;;;;;;;8.20;3.33;;;;;;;;;;6238730;28;20249;-71
2023/06/22 17:44:20;;;;;;;5.22;3.58;;;;;;;;;;6237572;28;20304;-72
2023/06/22 17:47:25;;;;;;;12.23;3.40;;;;;;;;;;6237377;28;20296;-69
2023/06/22 17:50:29;;;;;;;2.65;2.55;;;;;;;;;;6237943;28;20421;-72
2023/06/22 17:53:35;;;;;;;3.20;3.00;;;;;;;;;;6237392;28;20463;-70
2023/06/22 17:56:40;;;;;;;2.58;2.50;;;;;;;;;;6237292;28;20241;-69
2023/06/22 17:59:49;;;;;;;3.13;2.60;;;;;;;;;;6237482;28;20241;-70
2023/06/22 18:02:54;;;;;;;3.75;2.85;;;;;;;;;;6237213;28;20289;-71
2023/06/22 18:05:59;;;;;;;3.20;2.90;;;;;;;;;;6237628;28;20233;-71
2023/06/22 18:09:05;;;;;;;4.45;2.30;;;;;;;;;;6237319;28;20293;-70
2023/06/22 18:12:11;;;;;;;2.80;2.60;;;;;;;;;;6234835;28;20370;-70
2023/06/22 18:15:17;;;;;;;3.63;2.35;;;;;;;;;;6237735;28;20247;-69
2023/06/22 18:18:24;;;;;;;4.60;2.80;;;;;;;;;;6234703;28;20300;-70
2023/06/22 18:21:29;;;;;;;5.90;2.97;;;;;;;;;;6236948;28;20237;-69
2023/06/22 18:24:35;;;;;;;11.43;2.53;;;;;;;;;;6236606;28;20308;-71
2023/06/22 18:27:40;;;;;;;7.57;2.90;;;;;;;;;;6238000;28;20577;-71